Observations for ODIHAM RAF, United Kingdom (EGVO)

EGVO 280450Z 01005KT 2000 BR OVC002 14/14 Q0998 AMB 
EGVO 280350Z 01005KT 2000 BR OVC002 14/14 Q0998 AMB 
EGVO 280250Z 01006KT 2000 BR OVC001 14/14 Q0999 RED 
EGVO 280150Z AUTO 02005KT 1400 BR OVC002/// 15/15 Q0999 RERA
EGVO 280050Z AUTO 03003KT 1700 BR BKN002/// BKN050/// 15/15 Q1000 RERA  
EGVO 272350Z 06004KT 3000 -RA SCT002 OVC003 15/15 Q1001 AMB 
EGVO 272250Z 07003KT 3000 RA FEW002 OVC003 15/15 Q1001 YLO2 
EGVO 272150Z 07007KT 3000 RA SCT002 OVC003 16/15 Q1002 AMB  
EGVO 272124Z 05006G16KT 3000 +RA SCT002 OVC010 16/15 Q1002 AMB TEMPO FEW002 AMB
EGVO 272050Z 08009KT 3000 +RA FEW002 BKN004 OVC010 16/16 Q1002 YLO2 TEMPO SCT002 AMB
EGVO 271950Z 08002KT 3500 RA SCT003 BKN006 OVC010 17/16 Q1002 YLO2 TEMPO SCT002 AMB 
EGVO 271850Z 07004KT 4000 RA FEW005 SCT010 OVC013 17/16 Q1003 GRN TEMPO SCT005 YLO1 
EGVO 271750Z 11005KT 4000 RA FEW007 BKN010 17/16 Q1003 GRN TEMPO 5000 -RA GRN   
EGVO 271650Z 11005KT 4000 RA BKN010 BKN018 17/16 Q1003 GRN TEMPO 6000 -RA BKN015 WHT
EGVO 271550Z 21006KT 5000 RA FEW017 BKN020 18/17 Q1004 WHT TEMPO 4000 GRN   
EGVO 271524Z 10004KT 9999 RA SCT022 BKN028 20/16 Q1004 WHT TEMPO 7000 WHT
EGVO 271450Z 10003KT 9999 -RA BKN028 BKN040 21/14 Q1005 BLU BECMG BKN022 WHT
EGVO 271350Z 05002KT 9999 -RA OVC028 21/14 Q1005 BLU BECMG BKN022 WHT   
EGVO 271250Z 18003KT 9999 BKN028 OVC038 20/13 Q1005 BLU TEMPO SCT020 WHT
EGVO 271150Z 22004KT 9999 FEW028 OVC038 20/13 Q1006 BLU TEMPO SCT020 WHT
EGVO 271050Z 15003KT 9999 FEW028 BKN045 19/13 Q1006 BLU NOSIG   
EGVO 270950Z 13008KT CAVOK 19/12 Q1007 BLU NOSIG
EGVO 270850Z 11008KT 9999 BKN042 BKN070 17/11 Q1007 BLU NOSIG   
EGVO 270750Z 11007KT 9999 OVC042 15/10 Q1007 BLU NOSIG  
EGVO 270650Z 10007KT 9999 OVC046 15/09 Q1008 BLU NOSIG  
EGVO 270550Z 10006KT 9999 BKN048 OVC060 15/08 Q1008 BLU NOSIG   
EGVO 270450Z 10007KT 9999 FEW035 OVC050 14/08 Q1009 BLU